Time;durP1;ratioP1;P1;durP2;ratioP2;P2;SDS_P1;SDS_P2;PMS_P1;PMS_P2;Temp;Humidity;BMP_temperature;BMP_pressure;BME280_temperature;BME280_humidity;BME280_pressure;Samples;Min_cycle;Max_cycle;Signal;HPM_P1;HPM_P2
2022/02/06 00:01:34;;;;;;;25.50;14.20;;;;;;;6.65;60.96;95588.34;4932792;29;20032;-78
2022/02/06 00:03:59;;;;;;;18.77;13.00;;;;;;;6.65;60.64;95586.56;4933942;29;20043;-77
2022/02/06 00:06:25;;;;;;;17.17;12.27;;;;;;;6.69;60.95;95592.19;4931890;29;20051;-78
2022/02/06 00:08:50;;;;;;;16.30;12.80;;;;;;;6.73;60.41;95590.81;4933916;29;20044;-77
2022/02/06 00:11:16;;;;;;;16.55;11.68;;;;;;;6.72;60.35;95595.19;4935153;29;20066;-77
2022/02/06 00:13:41;;;;;;;16.20;11.50;;;;;;;6.78;60.14;95603.97;4900459;29;20046;-78
2022/02/06 00:16:08;;;;;;;18.58;12.07;;;;;;;6.80;60.21;95607.16;4931898;29;20050;-77
2022/02/06 00:18:34;;;;;;;23.60;13.93;;;;;;;6.83;59.95;95605.00;4916260;29;20047;-77
2022/02/06 00:21:05;;;;;;;37.72;16.75;;;;;;;6.89;59.15;95603.44;4923344;29;20040;-77
2022/02/06 00:23:31;;;;;;;24.80;13.90;;;;;;;6.92;59.15;95605.66;4922239;29;20559;-77
2022/02/06 00:30:59;;;;;;;17.13;12.07;;;;;;;6.92;58.89;95600.47;4932389;29;20506;-77
2022/02/06 00:41:29;;;;;;;20.42;12.88;;;;;;;6.78;59.67;95603.97;4928530;23;20126;-78
2022/02/06 00:43:55;;;;;;;20.98;11.80;;;;;;;6.73;59.49;95603.72;4937668;29;20055;-78
2022/02/06 00:46:22;;;;;;;22.00;13.95;;;;;;;6.62;60.27;95595.50;4922391;29;20032;-78
2022/02/06 00:48:56;;;;;;;28.08;14.77;;;;;;;6.63;60.27;95594.50;4937677;23;20050;-77
2022/02/06 00:53:50;;;;;;;20.88;14.48;;;;;;;6.51;60.37;95585.69;4920913;29;20480;-78
2022/02/06 00:56:15;;;;;;;24.73;14.90;;;;;;;6.34;61.60;95597.25;4923532;29;20493;-78
2022/02/06 00:58:41;;;;;;;20.25;14.82;;;;;;;6.35;61.35;95588.53;4924215;23;20092;-78
2022/02/06 01:01:06;;;;;;;22.65;14.95;;;;;;;6.30;60.79;95596.03;4904026;29;20527;-78
2022/02/06 01:03:32;;;;;;;25.60;15.10;;;;;;;6.26;60.88;95594.81;5001417;23;20054;-77
2022/02/06 01:05:57;;;;;;;24.90;16.48;;;;;;;6.25;60.85;95588.06;4922069;29;20111;-77
2022/02/06 01:08:23;;;;;;;27.13;17.92;;;;;;;6.18;60.88;95582.00;4922537;29;20032;-77
2022/02/06 01:10:48;;;;;;;30.80;18.02;;;;;;;6.10;60.92;95582.94;4921661;29;20455;-77
2022/02/06 01:13:46;;;;;;;34.80;20.65;;;;;;;6.08;60.99;95589.28;4905505;29;20115;-78
2022/02/06 01:16:11;;;;;;;24.60;16.23;;;;;;;6.05;61.27;95590.47;4917523;23;20496;-77
2022/02/06 01:18:42;;;;;;;29.50;16.73;;;;;;;6.06;61.13;95583.50;4937600;29;20498;-77
2022/02/06 01:21:20;;;;;;;25.45;15.93;;;;;;;5.96;61.00;95587.19;4920416;29;20047;-77
2022/02/06 01:26:49;;;;;;;33.97;17.20;;;;;;;6.00;60.73;95572.13;4903179;29;20047;-78
2022/02/06 01:29:31;;;;;;;26.98;16.08;;;;;;;5.98;60.55;95572.31;4927208;29;20521;-78
2022/02/06 01:32:02;;;;;;;24.50;16.17;;;;;;;5.97;61.57;95582.81;4926454;29;20458;-78
2022/02/06 01:37:12;;;;;;;25.95;16.40;;;;;;;5.99;60.71;95579.06;4925805;29;20152;-78
2022/02/06 01:42:29;;;;;;;29.00;16.15;;;;;;;5.92;61.20;95567.91;4924634;29;20171;-78
2022/02/06 02:18:52;;;;;;;26.30;14.13;;;;;;;6.22;57.93;95560.03;4906237;29;20107;-77
2022/02/06 02:26:51;;;;;;;17.63;11.95;;;;;;;6.18;56.86;95566.53;4926874;29;20062;-78
2022/02/06 02:48:07;;;;;;;22.58;13.98;;;;;;;6.22;55.25;95567.78;4937908;29;20062;-78
2022/02/06 02:50:36;;;;;;;18.83;12.75;;;;;;;6.19;56.04;95578.47;4924933;29;20048;-78
2022/02/06 02:53:13;;;;;;;17.73;13.35;;;;;;;6.19;55.84;95583.63;4922699;29;20072;-78
2022/02/06 03:00:51;;;;;;;19.83;12.65;;;;;;;6.08;56.16;95586.72;4921482;29;20052;-78
2022/02/06 03:03:24;;;;;;;15.98;11.90;;;;;;;5.96;56.27;95588.97;4924398;29;20047;-78
2022/02/06 03:05:52;;;;;;;20.25;12.27;;;;;;;5.80;57.16;95584.81;4925048;29;20571;-78
2022/02/06 03:08:19;;;;;;;17.67;12.45;;;;;;;5.70;57.62;95597.22;4923394;29;20044;-77
2022/02/06 03:10:45;;;;;;;17.13;11.60;;;;;;;5.53;57.33;95588.91;4923890;29;20118;-77
2022/02/06 03:13:14;;;;;;;16.58;12.70;;;;;;;5.37;57.79;95589.91;4925126;29;20032;-77
2022/02/06 03:18:35;;;;;;;18.08;12.77;;;;;;;5.20;58.56;95595.41;4905649;29;20044;-78
2022/02/06 03:21:02;;;;;;;32.63;21.40;;;;;;;5.18;57.50;95595.59;4923661;29;20655;-78
2022/02/06 03:23:28;;;;;;;45.20;21.55;;;;;;;5.17;57.71;95591.41;4908521;29;20039;-77
2022/02/06 03:25:54;;;;;;;48.05;20.25;;;;;;;5.17;58.05;95599.16;4915642;29;20015;-78
2022/02/06 03:28:20;;;;;;;41.83;20.38;;;;;;;5.19;58.16;95592.03;4922999;29;20036;-77
2022/02/06 03:30:46;;;;;;;41.28;20.88;;;;;;;5.22;57.78;95594.28;4922640;29;20134;-78
2022/02/06 03:33:11;;;;;;;31.02;16.65;;;;;;;5.29;57.67;95591.78;4923291;29;20116;-77
2022/02/06 03:35:37;;;;;;;19.02;13.52;;;;;;;5.31;57.09;95589.81;4945743;23;20044;-78
2022/02/06 03:38:03;;;;;;;19.17;12.82;;;;;;;5.30;56.36;95594.16;4952093;29;20035;-77
2022/02/06 03:40:33;;;;;;;15.90;11.75;;;;;;;5.28;55.33;95588.38;4944526;29;20111;-78
2022/02/06 03:45:47;;;;;;;15.80;10.68;;;;;;;5.23;54.27;95597.66;4942217;29;20039;-77
2022/02/06 03:48:21;;;;;;;21.55;13.30;;;;;;;5.24;54.01;95592.31;4943271;28;20038;-78
2022/02/06 03:50:52;;;;;;;27.63;16.30;;;;;;;5.22;53.86;95591.69;4944261;28;20039;-78
2022/02/06 03:53:21;;;;;;;20.63;14.02;;;;;;;5.24;54.84;95594.91;4942230;29;20078;-77
2022/02/06 03:55:48;;;;;;;39.03;19.98;;;;;;;5.20;54.30;95587.66;4927978;29;20043;-78
2022/02/06 03:58:13;;;;;;;29.02;17.70;;;;;;;5.20;54.49;95592.84;4925919;29;20541;-78
2022/02/06 04:00:39;;;;;;;30.40;17.83;;;;;;;5.20;54.84;95582.50;4942891;29;20039;-77
2022/02/06 04:03:04;;;;;;;32.35;16.73;;;;;;;5.18;54.47;95593.00;4943790;29;20047;-78
2022/02/06 04:05:30;;;;;;;24.63;14.52;;;;;;;5.17;54.52;95594.00;4928236;23;20035;-78
2022/02/06 04:07:56;;;;;;;26.67;15.75;;;;;;;5.17;52.62;95594.00;4962672;29;20110;-77
2022/02/06 04:10:21;;;;;;;33.70;19.63;;;;;;;5.17;53.10;95600.94;4953273;29;20511;-78
2022/02/06 04:12:49;;;;;;;27.50;17.08;;;;;;;5.15;51.93;95590.00;4935556;29;20093;-78
2022/02/06 04:15:22;;;;;;;24.33;15.77;;;;;;;5.12;51.24;95601.47;4945365;29;20046;-78
2022/02/06 04:17:55;;;;;;;14.65;8.93;;;;;;;5.01;50.21;95600.13;4958248;29;20087;-78
2022/02/06 04:20:21;;;;;;;13.13;9.43;;;;;;;4.92;50.64;95597.84;4962986;29;20039;-78
2022/02/06 04:22:46;;;;;;;9.70;7.43;;;;;;;4.85;50.10;95597.72;4957683;29;20142;-77
2022/02/06 04:25:12;;;;;;;11.95;8.77;;;;;;;4.85;50.15;95602.88;4958753;28;20035;-77
2022/02/06 04:27:37;;;;;;;15.23;7.20;;;;;;;4.81;49.52;95599.06;4956522;29;20044;-77
2022/02/06 04:30:04;;;;;;;9.73;7.18;;;;;;;4.73;49.88;95594.81;4942462;29;20047;-77
2022/02/06 04:32:29;;;;;;;9.45;7.20;;;;;;;4.70;49.12;95599.47;4984759;23;20049;-77
2022/02/06 04:34:56;;;;;;;12.00;7.63;;;;;;;4.59;49.79;95605.88;4947939;28;20043;-77
2022/02/06 04:37:39;;;;;;;7.90;7.10;;;;;;;4.58;50.20;95598.31;4951213;29;20032;-78
2022/02/06 04:43:22;;;;;;;10.93;7.75;;;;;;;4.50;50.12;95606.91;4920079;29;20127;-78
2022/02/06 04:49:05;;;;;;;16.15;7.97;;;;;;;4.45;50.10;95598.91;4905337;29;20580;-79
2022/02/06 05:15:54;;;;;;;16.67;9.23;;;;;;;4.30;48.74;95610.94;4896757;29;20048;-78
2022/02/06 05:18:30;;;;;;;15.02;10.20;;;;;;;4.34;49.39;95607.03;4917193;29;20036;-78
2022/02/06 05:34:17;;;;;;;42.05;17.27;;;;;;;4.58;48.00;95624.88;4903009;29;20108;-78
2022/02/06 05:36:42;;;;;;;35.33;19.10;;;;;;;4.61;47.51;95632.25;4903140;29;20449;-78
2022/02/06 05:39:08;;;;;;;33.85;14.10;;;;;;;4.67;47.08;95634.13;4888298;29;20099;-78
2022/02/06 05:41:33;;;;;;;16.95;9.35;;;;;;;4.68;47.54;95630.56;4904868;29;20668;-78
2022/02/06 05:43:59;;;;;;;14.73;8.73;;;;;;;4.67;47.04;95623.03;4903892;29;20040;-78
2022/02/06 05:46:25;;;;;;;7.70;6.90;;;;;;;4.71;46.93;95634.56;4887649;29;20512;-78
2022/02/06 05:48:50;;;;;;;10.10;7.25;;;;;;;4.73;46.80;95633.44;4903489;29;20029;-79
2022/02/06 05:51:23;;;;;;;7.85;6.47;;;;;;;4.68;47.38;95635.72;4880538;29;20389;-79
2022/02/06 05:53:49;;;;;;;13.43;5.95;;;;;;;4.67;47.86;95643.63;4912898;29;20052;-78
2022/02/06 05:56:16;;;;;;;10.68;7.32;;;;;;;4.71;47.36;95639.72;4904523;29;20068;-78
2022/02/06 05:58:43;;;;;;;12.13;6.80;;;;;;;4.76;47.98;95642.59;4914303;29;20040;-78
2022/02/06 06:01:09;;;;;;;9.80;7.47;;;;;;;4.77;47.29;95646.78;4913717;29;20048;-78
2022/02/06 06:03:34;;;;;;;16.95;9.40;;;;;;;4.89;47.64;95647.16;4909729;29;20099;-78
2022/02/06 06:06:00;;;;;;;22.50;8.95;;;;;;;4.95;47.60;95646.44;4924347;29;20032;-77
2022/02/06 06:08:25;;;;;;;17.55;10.75;;;;;;;5.09;47.64;95650.81;4926049;29;20028;-78
2022/02/06 06:10:56;;;;;;;15.68;10.75;;;;;;;5.28;47.08;95650.28;4917459;29;20588;-78
2022/02/06 06:13:22;;;;;;;24.52;14.07;;;;;;;5.48;47.50;95652.31;4958604;28;20069;-78
2022/02/06 06:15:48;;;;;;;29.75;18.17;;;;;;;5.69;46.65;95644.63;4944628;29;20027;-78
2022/02/06 06:18:14;;;;;;;41.85;17.75;;;;;;;5.92;46.18;95654.84;4942388;29;20484;-78
2022/02/06 06:20:42;;;;;;;28.88;17.27;;;;;;;6.12;45.84;95660.22;4945171;29;20419;-78
2022/02/06 06:23:07;;;;;;;32.40;17.45;;;;;;;6.27;44.78;95648.06;4952753;29;20110;-79
2022/02/06 06:25:39;;;;;;;37.35;14.57;;;;;;;6.47;43.91;95653.41;4946970;29;20765;-79
2022/02/06 06:28:05;;;;;;;22.45;12.38;;;;;;;6.66;44.00;95651.97;4930383;29;20039;-79
2022/02/06 06:30:36;;;;;;;27.02;11.98;;;;;;;6.81;42.41;95653.50;4952770;29;20046;-78
2022/02/06 06:33:05;;;;;;;18.95;10.40;;;;;;;6.98;40.91;95655.78;4945159;29;20474;-78
2022/02/06 06:35:30;;;;;;;24.48;12.10;;;;;;;7.05;40.00;95660.03;4946056;28;20051;-79
2022/02/06 06:37:58;;;;;;;28.02;10.55;;;;;;;7.25;39.12;95661.94;4929146;29;20514;-79
2022/02/06 06:40:24;;;;;;;18.85;10.50;;;;;;;7.51;38.79;95662.91;4929176;29;20189;-79
2022/02/06 06:42:50;;;;;;;15.00;8.63;;;;;;;7.70;37.75;95661.41;4944491;29;20031;-79
2022/02/06 06:45:15;;;;;;;18.58;8.30;;;;;;;8.08;37.56;95674.69;4944504;29;20172;-78
2022/02/06 06:47:42;;;;;;;10.38;6.15;;;;;;;8.45;36.37;95670.00;4952312;29;20047;-78
2022/02/06 06:50:07;;;;;;;23.13;13.10;;;;;;;8.57;40.18;95675.41;4990866;23;20062;-79
2022/02/06 06:52:33;;;;;;;18.92;12.20;;;;;;;8.54;40.66;95673.22;4990602;23;20136;-79
2022/02/06 06:55:02;;;;;;;22.67;14.07;;;;;;;8.40;41.65;95675.78;4934732;29;20106;-79
2022/02/06 06:57:35;;;;;;;17.35;12.07;;;;;;;8.22;42.61;95675.53;4935489;29;20043;-78
2022/02/06 07:02:31;;;;;;;18.48;13.02;;;;;;;7.98;43.98;95676.06;4941331;29;20042;-79
2022/02/06 07:05:05;;;;;;;20.98;13.18;;;;;;;7.93;43.95;95681.00;4942093;29;20043;-78
2022/02/06 07:07:31;;;;;;;19.15;12.50;;;;;;;7.85;44.62;95673.41;4916107;29;20060;-79
2022/02/06 07:09:57;;;;;;;22.15;13.07;;;;;;;7.86;44.65;95669.84;4913612;29;20408;-79
2022/02/06 07:12:22;;;;;;;16.90;12.32;;;;;;;7.88;44.93;95678.19;4909224;29;20063;-78
2022/02/06 07:14:49;;;;;;;17.13;11.88;;;;;;;7.83;43.80;95687.34;4923869;29;20044;-78
2022/02/06 07:17:15;;;;;;;31.38;12.55;;;;;;;7.68;44.58;95684.09;4921766;29;20263;-78
2022/02/06 07:19:40;;;;;;;30.90;13.40;;;;;;;7.51;45.58;95682.81;4933178;29;20512;-78
2022/02/06 07:22:12;;;;;;;26.20;12.25;;;;;;;7.52;45.59;95684.41;4934084;29;20043;-79
2022/02/06 07:24:37;;;;;;;17.73;12.55;;;;;;;7.50;45.89;95682.03;4933294;29;20058;-78
2022/02/06 07:27:14;;;;;;;23.88;12.48;;;;;;;7.55;45.22;95688.41;4908855;29;20036;-78
2022/02/06 07:29:40;;;;;;;29.35;11.65;;;;;;;7.67;44.70;95682.50;4933804;29;20157;-79
2022/02/06 07:32:06;;;;;;;18.42;11.55;;;;;;;7.76;44.39;95685.72;4918531;29;20511;-79
2022/02/06 07:34:31;;;;;;;25.27;12.15;;;;;;;7.86;44.57;95690.53;4934352;29;20119;-79
2022/02/06 07:36:57;;;;;;;16.08;11.30;;;;;;;8.03;43.89;95689.22;4918101;29;20201;-79
2022/02/06 07:39:22;;;;;;;20.42;10.88;;;;;;;8.10;42.77;95690.03;4936096;29;20044;-80
2022/02/06 07:41:48;;;;;;;22.05;12.35;;;;;;;8.27;43.08;95696.44;4935178;29;20042;-80
2022/02/06 07:44:13;;;;;;;22.88;11.35;;;;;;;8.45;42.80;95693.31;4919644;29;20407;-80
2022/02/06 07:46:47;;;;;;;15.68;10.27;;;;;;;8.66;42.35;95687.19;4936217;29;20967;-81
2022/02/06 07:49:14;;;;;;;18.20;11.98;;;;;;;8.78;41.76;95680.41;4946772;29;20035;-78
2022/02/06 07:51:40;;;;;;;18.63;10.70;;;;;;;9.01;41.92;95686.00;4941865;29;20047;-78
2022/02/06 07:54:05;;;;;;;17.02;10.32;;;;;;;9.23;41.05;95680.59;4934684;29;20066;-77
2022/02/06 07:56:31;;;;;;;17.98;10.93;;;;;;;9.44;39.47;95677.78;4933076;29;20040;-77
2022/02/06 07:58:57;;;;;;;20.15;10.45;;;;;;;9.55;39.47;95682.34;4931587;29;20043;-77
2022/02/06 08:01:23;;;;;;;19.08;9.52;;;;;;;9.59;39.24;95682.72;4900408;29;20051;-77
2022/02/06 08:03:48;;;;;;;20.90;11.63;;;;;;;9.63;38.85;95682.13;4933315;29;20039;-76
2022/02/06 08:06:15;;;;;;;20.80;10.98;;;;;;;9.76;38.73;95688.25;4931965;29;20079;-75
2022/02/06 08:08:40;;;;;;;16.88;9.98;;;;;;;9.80;38.17;95676.47;4933184;29;20322;-77
2022/02/06 08:11:11;;;;;;;18.73;10.13;;;;;;;9.90;39.13;95684.63;4932531;29;20046;-76
2022/02/06 08:13:43;;;;;;;11.63;9.00;;;;;;;9.96;39.40;95673.44;4930805;29;20042;-76
2022/02/06 08:16:09;;;;;;;20.30;9.10;;;;;;;10.12;41.72;95685.94;4931496;29;20028;-79
2022/02/06 08:18:40;;;;;;;15.50;7.93;;;;;;;10.25;38.01;95684.28;4923161;29;20073;-76
2022/02/06 08:21:09;;;;;;;16.75;9.77;;;;;;;10.37;37.61;95675.63;4923898;29;20056;-75
2022/02/06 08:23:35;;;;;;;14.05;9.48;;;;;;;10.35;37.10;95676.84;4914160;29;20044;-76
2022/02/06 08:26:00;;;;;;;12.90;8.82;;;;;;;10.32;36.24;95675.47;4906561;29;20032;-76
2022/02/06 08:28:26;;;;;;;14.38;9.18;;;;;;;10.25;36.53;95679.09;4921900;29;20071;-76
2022/02/06 08:30:51;;;;;;;20.80;10.38;;;;;;;10.25;36.79;95666.09;4921663;29;20092;-76
2022/02/06 08:33:17;;;;;;;16.75;9.25;;;;;;;10.17;36.84;95665.31;4906142;29;20024;-76
2022/02/06 08:35:42;;;;;;;16.63;10.15;;;;;;;10.10;37.18;95664.56;4921282;29;20461;-76
2022/02/06 08:38:10;;;;;;;8.35;6.40;;;;;;;10.06;36.79;95670.38;4921198;29;20035;-76
2022/02/06 08:40:36;;;;;;;11.88;6.90;;;;;;;9.97;36.96;95664.63;4931201;29;20035;-76
2022/02/06 08:43:01;;;;;;;15.02;6.22;;;;;;;9.92;36.74;95667.84;4922083;29;20047;-76
2022/02/06 08:45:29;;;;;;;23.02;7.15;;;;;;;9.92;37.18;95662.66;4905975;29;20050;-76
2022/02/06 08:47:55;;;;;;;14.52;5.97;;;;;;;9.64;36.41;95654.34;4921589;29;20054;-75
2022/02/06 08:50:20;;;;;;;13.68;5.90;;;;;;;9.43;35.81;95667.56;4922036;29;20044;-76
2022/02/06 08:52:46;;;;;;;15.55;7.45;;;;;;;9.28;36.00;95670.44;4932238;29;20427;-75
2022/02/06 08:55:12;;;;;;;11.60;7.85;;;;;;;9.27;38.17;95658.44;4899202;29;20102;-75
2022/02/06 08:57:44;;;;;;;9.13;6.53;;;;;;;9.26;37.63;95669.81;4933967;29;20106;-76
2022/02/06 09:00:10;;;;;;;12.15;6.88;;;;;;;9.37;37.92;95671.78;4900849;29;20471;-75
2022/02/06 09:02:35;;;;;;;11.73;5.75;;;;;;;9.48;37.41;95671.19;4915271;29;20736;-75
2022/02/06 09:05:02;;;;;;;10.43;6.65;;;;;;;9.48;36.83;95670.38;4930896;29;20380;-75
2022/02/06 09:07:28;;;;;;;6.25;5.65;;;;;;;9.56;37.03;95672.75;4916423;29;20059;-76
2022/02/06 09:09:58;;;;;;;5.88;5.22;;;;;;;9.57;37.04;95667.34;4932242;29;20098;-76
2022/02/06 09:12:24;;;;;;;12.10;6.05;;;;;;;9.60;37.45;95674.75;4930820;29;20054;-75
2022/02/06 09:14:50;;;;;;;10.27;5.45;;;;;;;9.66;36.65;95667.13;4914617;29;20043;-75
2022/02/06 09:17:15;;;;;;;9.27;5.40;;;;;;;9.50;36.69;95674.38;4899527;29;20484;-75
2022/02/06 09:19:41;;;;;;;9.60;4.80;;;;;;;9.40;35.87;95668.00;4905308;29;20036;-76
2022/02/06 09:22:08;;;;;;;11.32;4.38;;;;;;;9.20;34.66;95670.63;4922626;29;20465;-75
2022/02/06 09:24:34;;;;;;;7.60;4.78;;;;;;;9.15;38.28;95671.25;4921200;29;20035;-75
2022/02/06 09:26:59;;;;;;;17.55;5.85;;;;;;;9.15;36.62;95662.66;4914804;29;20035;-75
2022/02/06 09:29:37;;;;;;;14.13;5.45;;;;;;;9.08;37.15;95657.47;4931909;29;20047;-76
2022/02/06 09:37:04;;;;;;;11.00;6.15;;;;;;;9.42;37.75;95656.41;4931314;29;20044;-75
2022/02/06 09:39:33;;;;;;;8.80;6.65;;;;;;;9.42;37.61;95653.81;4921108;29;20611;-76
2022/02/06 09:41:59;;;;;;;8.75;5.20;;;;;;;9.45;37.98;95650.03;4905779;29;20024;-75
2022/02/06 09:44:25;;;;;;;11.82;5.75;;;;;;;9.54;37.04;95652.19;4922005;29;20099;-75
2022/02/06 09:46:51;;;;;;;9.80;5.25;;;;;;;9.48;38.26;95642.63;4900574;29;20043;-79
2022/02/06 09:49:17;;;;;;;9.38;4.80;;;;;;;9.45;37.86;95640.44;4897852;29;20031;-79
2022/02/06 09:51:43;;;;;;;7.55;5.38;;;;;;;9.46;37.61;95644.63;4899679;29;20259;-82
2022/02/06 09:54:09;;;;;;;10.23;4.90;;;;;;;9.47;36.76;95635.84;4898568;29;20118;-79
2022/02/06 09:56:42;;;;;;;8.40;4.88;;;;;;;9.49;35.44;95630.44;4935953;29;20586;-79
2022/02/06 09:59:17;;;;;;;;;;;;;;;9.53;35.60;95627.22;4920171;29;20043;-78
2022/02/06 10:01:43;;;;;;;8.52;5.45;;;;;;;9.41;35.05;95622.84;4934479;29;19915;-78
2022/02/06 10:04:09;;;;;;;10.02;5.15;;;;;;;9.41;35.38;95622.84;4939831;29;20047;-79
2022/02/06 10:06:52;;;;;;;11.05;4.63;;;;;;;9.41;35.65;95609.88;4941684;23;20115;-79
2022/02/06 10:09:46;;;;;;;7.88;5.68;;;;;;;9.49;34.87;95602.69;4950634;28;20043;-78
2022/02/06 10:12:12;;;;;;;14.00;8.20;;;;;;;9.60;35.13;95602.03;4942035;29;20118;-78
2022/02/06 10:14:38;;;;;;;11.38;4.53;;;;;;;9.59;33.94;95597.81;4943413;29;20499;-78
2022/02/06 10:17:03;;;;;;;4.65;4.15;;;;;;;9.51;34.29;95592.88;4944804;29;20087;-77
2022/02/06 10:19:30;;;;;;;4.68;4.10;;;;;;;9.41;34.88;95592.50;4947297;29;20047;-78
2022/02/06 10:21:55;;;;;;;7.68;4.57;;;;;;;9.30;34.39;95593.97;4960667;29;20043;-78
2022/02/06 10:24:33;;;;;;;4.78;4.38;;;;;;;9.27;34.22;95590.94;4957604;28;20049;-78
2022/02/06 10:27:18;;;;;;;7.95;4.35;;;;;;;9.26;34.49;95573.78;4917569;29;20122;-79
2022/02/06 10:29:50;;;;;;;11.10;4.53;;;;;;;9.40;34.01;95570.16;4947891;29;20543;-79
2022/02/06 10:32:16;;;;;;;6.38;3.80;;;;;;;9.37;33.71;95570.56;4944241;29;20028;-78
2022/02/06 10:34:42;;;;;;;7.28;5.05;;;;;;;9.28;33.63;95572.59;4928885;29;20040;-79
2022/02/06 10:37:23;;;;;;;8.20;3.97;;;;;;;9.32;33.65;95562.59;4951136;29;20479;-79
2022/02/06 10:40:07;;;;;;;6.07;4.47;;;;;;;9.30;34.62;95560.22;4951161;29;20043;-79
2022/02/06 10:42:41;;;;;;;6.10;4.72;;;;;;;9.40;33.86;95556.38;5119090;23;20563;-79
2022/02/06 10:45:19;;;;;;;8.65;4.63;;;;;;;9.52;33.53;95552.13;4937027;29;20130;-78
2022/02/06 10:47:46;;;;;;;7.60;4.25;;;;;;;9.47;33.45;95544.97;4936338;29;20040;-78
2022/02/06 10:50:14;;;;;;;7.05;3.83;;;;;;;9.41;31.80;95540.59;4945231;23;20512;-78
2022/02/06 10:52:40;;;;;;;6.95;4.13;;;;;;;9.31;32.44;95530.66;4936321;29;20039;-78
2022/02/06 10:55:06;;;;;;;6.80;4.25;;;;;;;9.42;32.79;95531.78;4936327;29;20055;-78
2022/02/06 10:57:31;;;;;;;5.35;3.70;;;;;;;9.43;32.27;95523.00;4935139;29;20112;-78
2022/02/06 10:59:57;;;;;;;5.18;3.95;;;;;;;9.44;32.35;95529.81;4938059;29;20028;-78
2022/02/06 11:02:30;;;;;;;7.60;4.13;;;;;;;9.49;31.87;95519.59;4946868;29;20031;-77
2022/02/06 11:04:59;;;;;;;7.35;4.40;;;;;;;9.56;31.96;95522.16;4956217;29;20039;-78
2022/02/06 11:07:24;;;;;;;4.93;4.05;;;;;;;9.67;31.95;95511.13;4968883;23;20036;-78
2022/02/06 11:09:50;;;;;;;6.00;3.72;;;;;;;9.65;30.23;95512.34;4919463;29;20039;-77
2022/02/06 11:12:20;;;;;;;7.15;3.88;;;;;;;9.61;31.12;95504.16;4917594;29;20044;-77
2022/02/06 11:14:48;;;;;;;5.53;4.13;;;;;;;9.65;31.88;95500.16;4916568;29;20492;-78
2022/02/06 11:17:21;;;;;;;7.43;3.92;;;;;;;9.67;31.06;95492.16;4900407;29;20067;-78
2022/02/06 11:20:04;;;;;;;7.38;4.00;;;;;;;9.55;29.67;95492.78;4904881;23;20085;-77
2022/02/06 11:22:30;;;;;;;4.15;3.75;;;;;;;9.50;29.69;95489.25;4935515;29;20164;-78
2022/02/06 11:24:55;;;;;;;4.90;3.72;;;;;;;9.50;30.44;95482.25;4919997;29;20039;-78
2022/02/06 11:27:21;;;;;;;4.03;3.72;;;;;;;9.57;30.23;95475.22;4916470;29;20042;-78
2022/02/06 11:29:47;;;;;;;5.72;3.33;;;;;;;9.67;30.02;95476.56;4916523;29;20568;-78
2022/02/06 11:32:13;;;;;;;5.22;3.88;;;;;;;9.71;29.33;95468.13;4916973;29;20043;-78
2022/02/06 11:34:42;;;;;;;4.85;3.80;;;;;;;9.70;29.26;95470.94;4915101;29;20420;-78
2022/02/06 11:43:53;;;;;;;6.63;3.78;;;;;;;9.90;30.44;95458.59;4914379;29;20055;-78
2022/02/06 11:46:28;;;;;;;10.30;4.05;;;;;;;10.02;29.80;95459.53;4916510;29;20051;-78
2022/02/06 11:48:59;;;;;;;7.75;3.80;;;;;;;10.13;29.82;95455.44;4917503;29;20075;-78
2022/02/06 11:51:25;;;;;;;19.27;4.72;;;;;;;10.25;30.00;95437.38;4911546;29;20051;-78
2022/02/06 11:53:51;;;;;;;10.07;3.47;;;;;;;10.30;28.74;95434.94;4931533;29;20032;-78
2022/02/06 11:56:29;;;;;;;6.20;4.30;;;;;;;10.39;28.86;95438.84;4929674;29;20044;-78
2022/02/06 11:59:11;;;;;;;7.70;4.50;;;;;;;10.43;29.11;95434.81;4924683;29;20058;-78
2022/02/06 12:01:37;;;;;;;7.15;4.65;;;;;;;10.47;29.24;95426.38;4902717;29;20531;-78
2022/02/06 12:04:03;;;;;;;9.77;4.20;;;;;;;10.47;28.91;95421.16;4901294;29;20059;-78
2022/02/06 12:06:44;;;;;;;7.97;4.60;;;;;;;10.58;29.62;95427.47;4916741;29;20032;-78
2022/02/06 12:09:11;;;;;;;9.45;4.70;;;;;;;10.59;29.97;95410.06;4916851;29;20525;-78
2022/02/06 12:11:36;;;;;;;4.38;3.53;;;;;;;10.59;30.19;95408.25;4915201;29;20153;-78
2022/02/06 12:14:20;;;;;;;5.95;3.90;;;;;;;10.58;30.59;95409.25;4928974;29;20035;-78
2022/02/06 12:16:56;;;;;;;3.28;2.83;;;;;;;10.57;30.61;95401.66;4915163;29;20048;-78
2022/02/06 12:19:32;;;;;;;8.10;3.53;;;;;;;10.52;30.72;95402.31;4916186;29;20385;-78
2022/02/06 12:22:01;;;;;;;5.50;3.38;;;;;;;10.51;30.45;95396.31;4898753;29;20132;-79
2022/02/06 12:24:53;;;;;;;9.75;3.15;;;;;;;10.47;31.27;95394.38;4914370;29;20059;-78
2022/02/06 12:27:24;;;;;;;6.87;3.07;;;;;;;10.43;31.73;95393.22;4914296;29;20517;-78
2022/02/06 12:29:52;;;;;;;4.55;3.10;;;;;;;10.31;31.56;95379.34;4914717;29;20499;-78
2022/02/06 12:32:32;;;;;;;4.43;3.53;;;;;;;10.15;31.62;95381.47;4914351;29;20496;-78
2022/02/06 12:37:42;;;;;;;5.22;3.72;;;;;;;10.10;32.28;95383.91;4914559;29;20039;-78
2022/02/06 12:40:12;;;;;;;7.15;3.70;;;;;;;10.05;32.74;95386.34;4914320;29;20048;-78
2022/02/06 12:42:45;;;;;;;4.95;4.00;;;;;;;10.11;32.45;95375.09;4897636;29;20055;-78
2022/02/06 12:45:13;;;;;;;5.38;3.60;;;;;;;10.09;32.52;95376.34;4915193;29;20040;-78
2022/02/06 12:47:40;;;;;;;5.85;4.30;;;;;;;10.18;32.80;95370.63;4911911;29;20035;-78
2022/02/06 12:50:25;;;;;;;5.47;4.70;;;;;;;10.31;33.40;95358.53;4911531;29;20043;-77
2022/02/06 12:52:51;;;;;;;9.25;4.28;;;;;;;10.42;33.17;95361.22;4912725;29;20040;-77
2022/02/06 12:55:17;;;;;;;6.00;4.05;;;;;;;10.40;32.87;95357.22;4897154;29;20031;-77
2022/02/06 12:57:46;;;;;;;10.63;4.53;;;;;;;10.41;33.05;95358.81;4915866;29;20055;-78
2022/02/06 13:00:33;;;;;;;6.43;4.50;;;;;;;10.37;32.98;95335.06;4912549;29;20560;-77
2022/02/06 13:03:29;;;;;;;7.63;4.20;;;;;;;10.52;32.85;95345.09;4912386;29;20040;-77
2022/02/06 13:06:09;;;;;;;12.57;5.15;;;;;;;10.56;33.20;95346.25;4913119;29;20079;-78
2022/02/06 13:08:37;;;;;;;6.72;4.43;;;;;;;10.54;33.24;95337.88;4912701;29;20043;-79
2022/02/06 13:11:06;;;;;;;7.18;4.88;;;;;;;10.59;33.45;95340.63;4898771;29;20409;-79
2022/02/06 13:19:28;;;;;;;11.40;5.38;;;;;;;10.93;33.11;95313.19;4915293;29;20088;-78
2022/02/06 13:24:28;;;;;;;11.27;6.00;;;;;;;11.10;33.99;95297.72;4915949;29;20130;-78
2022/02/06 13:27:24;;;;;;;16.05;7.00;;;;;;;11.13;34.13;95299.88;4901761;29;20063;-78
2022/02/06 13:35:11;;;;;;;4.65;4.25;;;;;;;11.35;34.00;95295.72;4913602;29;20187;-78
2022/02/06 13:37:45;;;;;;;7.68;5.55;;;;;;;11.41;33.59;95301.88;4915725;29;20039;-79
2022/02/06 13:40:16;;;;;;;13.98;7.68;;;;;;;11.38;32.64;95290.06;4920124;29;20040;-79
2022/02/06 13:42:55;;;;;;;15.95;8.10;;;;;;;11.11;33.00;95286.31;4917288;29;20046;-78
2022/02/06 13:45:23;;;;;;;19.65;7.75;;;;;;;11.02;33.14;95282.41;4915709;29;20123;-78
2022/02/06 13:47:50;;;;;;;18.00;6.82;;;;;;;11.04;32.59;95282.97;4918634;29;20055;-78
2022/02/06 13:50:15;;;;;;;18.60;8.20;;;;;;;11.03;32.94;95278.78;4886171;29;20042;-78
2022/02/06 13:52:45;;;;;;;12.82;7.40;;;;;;;10.95;33.06;95273.94;4917458;29;20040;-78
2022/02/06 13:55:14;;;;;;;11.45;7.30;;;;;;;10.85;33.23;95265.84;4901640;29;20036;-78
2022/02/06 13:57:40;;;;;;;15.10;7.32;;;;;;;10.88;32.88;95260.19;4916845;29;20040;-79
2022/02/06 14:00:10;;;;;;;20.35;7.90;;;;;;;10.82;33.50;95262.69;4900764;29;20416;-78
2022/02/06 14:02:36;;;;;;;27.50;8.27;;;;;;;10.82;33.67;95259.28;4916529;29;20130;-78
2022/02/06 14:05:06;;;;;;;15.80;7.63;;;;;;;10.85;32.80;95261.44;4916936;29;20515;-78
2022/02/06 14:07:32;;;;;;;12.85;8.05;;;;;;;10.76;33.48;95258.38;4916601;29;20036;-78
2022/02/06 14:10:11;;;;;;;11.90;7.60;;;;;;;10.78;33.29;95251.16;4917247;29;20039;-78
2022/02/06 14:12:49;;;;;;;12.77;7.03;;;;;;;10.83;33.42;95269.47;4917632;29;20445;-78
2022/02/06 14:15:23;;;;;;;18.77;8.45;;;;;;;10.93;33.35;95252.53;4916005;29;20070;-78
2022/02/06 14:17:50;;;;;;;14.13;7.72;;;;;;;10.83;33.31;95247.88;4916215;23;20497;-78
2022/02/06 14:20:19;;;;;;;15.20;8.00;;;;;;;10.79;33.52;95244.94;4918683;29;20408;-77
2022/02/06 14:22:46;;;;;;;17.42;8.68;;;;;;;10.89;33.56;95251.38;4914576;29;20040;-77
2022/02/06 14:25:15;;;;;;;14.35;7.93;;;;;;;10.89;33.91;95246.19;4914422;29;20063;-77
2022/02/06 14:27:44;;;;;;;11.85;8.38;;;;;;;10.70;33.59;95237.66;4899601;29;20709;-77